createdAt,value
2022-09-01T00:00:01.347Z,63.63
2022-09-01T00:02:28.862Z,63.84
2022-09-01T00:04:58.668Z,63.80
2022-09-01T00:07:27.237Z,64.29
2022-09-01T00:09:53.662Z,64.10
2022-09-01T00:12:22.593Z,64.10
2022-09-01T00:14:49.312Z,64.56
2022-09-01T00:17:15.781Z,64.13
2022-09-01T00:19:42.189Z,64.19
2022-09-01T00:22:09.121Z,64.55
2022-09-01T00:24:35.995Z,64.69
2022-09-01T00:27:02.506Z,64.74
2022-09-01T00:29:29.181Z,65.08
2022-09-01T00:31:55.639Z,65.26
2022-09-01T00:34:22.410Z,65.08
2022-09-01T00:36:49.152Z,65.83
2022-09-01T00:39:16.180Z,65.63
2022-09-01T00:41:44.811Z,65.76
2022-09-01T00:44:15.819Z,65.76
2022-09-01T00:46:49.744Z,66.02
2022-09-01T00:49:22.304Z,65.77
2022-09-01T00:51:54.377Z,65.75
2022-09-01T00:54:27.779Z,66.47
2022-09-01T00:56:57.830Z,66.18
2022-09-01T00:59:27.457Z,66.30
2022-09-01T01:01:54.291Z,66.45
2022-09-01T01:04:20.803Z,67.02
2022-09-01T01:06:58.584Z,66.64
2022-09-01T01:09:27.574Z,67.31
2022-09-01T01:11:54.953Z,66.97
2022-09-01T01:14:21.469Z,66.56
2022-09-01T01:16:50.730Z,66.52
2022-09-01T01:20:03.770Z,66.47
2022-09-01T01:22:54.078Z,66.37
2022-09-01T01:25:22.402Z,66.00
2022-09-01T01:27:49.271Z,66.22
2022-09-01T01:30:18.066Z,65.95
2022-09-01T01:32:45.660Z,65.90
2022-09-01T01:35:14.700Z,66.75
2022-09-01T01:37:46.510Z,67.00
2022-09-01T01:40:15.819Z,67.74
2022-09-01T01:42:48.065Z,66.56
2022-09-01T01:45:19.458Z,66.16
2022-09-01T01:47:53.121Z,66.70
2022-09-01T01:50:22.124Z,66.45
2022-09-01T01:52:48.609Z,66.50
2022-09-01T01:55:27.979Z,66.81
2022-09-01T01:57:56.200Z,66.45
2022-09-01T02:00:30.192Z,66.21
2022-09-01T02:02:58.310Z,66.74
2022-09-01T02:05:29.442Z,66.61
2022-09-01T02:08:05.475Z,66.29
2022-09-01T02:10:35.762Z,67.12
2022-09-01T02:13:07.204Z,66.35
2022-09-01T02:15:44.251Z,66.62
2022-09-01T02:18:14.222Z,66.71
2022-09-01T02:20:41.874Z,66.98
2022-09-01T02:23:12.310Z,66.93
2022-09-01T02:26:05.019Z,66.84
2022-09-01T02:28:34.922Z,67.14
2022-09-01T02:31:03.845Z,67.00
2022-09-01T02:33:32.150Z,67.67
2022-09-01T02:36:02.715Z,67.01
2022-09-01T02:38:29.742Z,67.48
2022-09-01T02:40:58.333Z,67.50
2022-09-01T02:43:28.367Z,67.66
2022-09-01T02:45:59.846Z,67.54
2022-09-01T02:48:32.634Z,67.09
2022-09-01T02:51:02.396Z,67.52
2022-09-01T02:53:30.756Z,68.00
2022-09-01T02:55:59.438Z,67.49
2022-09-01T02:58:32.932Z,67.62
2022-09-01T03:01:00.541Z,67.59
2022-09-01T03:03:29.714Z,67.47
2022-09-01T03:05:56.278Z,67.68
2022-09-01T03:08:24.664Z,67.58
2022-09-01T03:10:52.056Z,67.31
2022-09-01T03:13:21.735Z,67.69
2022-09-01T03:15:48.131Z,67.19
2022-09-01T03:18:15.169Z,67.03
2022-09-01T03:20:44.622Z,67.05
2022-09-01T03:23:14.820Z,67.27
2022-09-01T03:25:47.201Z,67.61
2022-09-01T03:28:14.274Z,66.78
2022-09-01T03:30:49.027Z,66.88
2022-09-01T03:33:18.597Z,67.00
2022-09-01T03:35:45.273Z,67.02
2022-09-01T03:38:12.829Z,67.51
2022-09-01T03:40:40.929Z,67.00
2022-09-01T03:43:11.023Z,66.88
2022-09-01T03:45:38.345Z,67.47
2022-09-01T03:48:08.943Z,67.97
2022-09-01T03:50:46.079Z,67.57
2022-09-01T03:53:20.079Z,66.91
2022-09-01T03:55:48.133Z,67.37
2022-09-01T03:58:18.944Z,67.13
2022-09-01T04:00:49.617Z,67.20
2022-09-01T04:03:21.784Z,66.29
2022-09-01T04:05:55.763Z,66.63
2022-09-01T04:08:32.766Z,66.49
2022-09-01T04:11:13.813Z,66.16
2022-09-01T04:13:41.770Z,67.01
2022-09-01T04:16:38.219Z,66.71
2022-09-01T04:19:15.996Z,66.73
2022-09-01T04:21:44.004Z,66.63
2022-09-01T04:24:12.111Z,66.69
2022-09-01T04:26:40.641Z,66.58
2022-09-01T04:29:09.088Z,66.78
2022-09-01T04:31:38.674Z,67.01
2022-09-01T04:34:13.686Z,66.66
2022-09-01T04:36:43.648Z,67.06
2022-09-01T04:39:12.330Z,66.45
2022-09-01T04:41:42.596Z,66.70
2022-09-01T04:44:09.694Z,66.59
2022-09-01T04:46:42.271Z,66.26
2022-09-01T04:49:13.376Z,66.96
2022-09-01T04:51:44.901Z,66.95
2022-09-01T04:54:14.668Z,67.15
2022-09-01T04:56:43.604Z,66.58
2022-09-01T04:59:12.079Z,66.99
2022-09-01T05:01:46.381Z,66.83
2022-09-01T05:04:17.902Z,66.95
2022-09-01T05:06:49.200Z,66.81
2022-09-01T05:09:17.933Z,67.06
2022-09-01T05:11:46.206Z,67.57
2022-09-01T05:14:13.040Z,67.69
2022-09-01T05:16:42.468Z,67.13
2022-09-01T05:19:14.631Z,67.31
2022-09-01T05:21:46.553Z,67.24
2022-09-01T05:24:15.389Z,67.10
2022-09-01T05:26:42.827Z,67.33
2022-09-01T05:29:13.337Z,66.65
2022-09-01T05:31:41.647Z,66.95
2022-09-01T05:34:13.830Z,66.22
2022-09-01T05:36:46.249Z,66.48
2022-09-01T05:39:13.145Z,65.96
2022-09-01T05:41:41.024Z,66.10
2022-09-01T05:44:08.633Z,65.74
2022-09-01T05:46:38.624Z,66.07
2022-09-01T05:49:07.037Z,65.52
2022-09-01T05:51:44.245Z,65.92
2022-09-01T05:54:12.053Z,65.68
2022-09-01T05:56:43.499Z,65.18
2022-09-01T05:59:27.054Z,64.88
2022-09-01T06:01:55.122Z,65.20
2022-09-01T06:04:23.234Z,64.99
2022-09-01T06:07:06.817Z,64.33
2022-09-01T06:09:43.884Z,64.63
2022-09-01T06:12:18.467Z,63.55
2022-09-01T06:14:47.556Z,63.34
2022-09-01T06:17:16.515Z,62.89
2022-09-01T06:19:44.103Z,63.68
2022-09-01T06:22:11.416Z,62.73
2022-09-01T06:24:40.747Z,62.38
2022-09-01T06:27:10.495Z,61.73
2022-09-01T06:29:39.828Z,60.72
2022-09-01T06:32:12.568Z,60.47
2022-09-01T06:34:42.501Z,60.65
2022-09-01T06:37:10.870Z,60.24
2022-09-01T06:39:37.706Z,59.38
2022-09-01T06:42:06.236Z,60.24
2022-09-01T06:44:33.724Z,59.99
2022-09-01T06:47:00.486Z,60.21
2022-09-01T06:49:33.148Z,60.45
2022-09-01T06:52:02.983Z,60.73
2022-09-01T06:54:35.671Z,59.94
2022-09-01T06:59:52.539Z,60.02
2022-09-01T07:02:24.498Z,60.20
2022-09-01T07:04:54.493Z,59.62
2022-09-01T07:10:24.716Z,58.45
2022-09-01T07:13:08.345Z,59.28
2022-09-01T07:18:30.902Z,58.21
2022-09-01T07:21:09.396Z,57.47
2022-09-01T07:26:36.012Z,56.94
2022-09-01T07:29:06.480Z,56.74
2022-09-01T07:34:46.533Z,56.28
2022-09-01T07:38:05.592Z,55.98
2022-09-01T07:42:31.494Z,57.10
2022-09-01T07:45:30.725Z,54.66
2022-09-01T07:48:03.094Z,54.88
2022-09-01T07:53:19.205Z,53.00
2022-09-01T07:55:46.984Z,52.41
2022-09-01T07:58:14.113Z,52.76
2022-09-01T08:00:43.214Z,52.31
2022-09-01T08:03:09.803Z,51.64
2022-09-01T08:05:36.449Z,51.95
2022-09-01T08:08:03.423Z,52.21
2022-09-01T08:10:29.847Z,52.55
2022-09-01T08:12:57.251Z,52.00
2022-09-01T08:15:41.708Z,51.16
2022-09-01T08:18:14.333Z,50.98
2022-09-01T08:20:45.603Z,51.29
2022-09-01T08:23:15.686Z,51.04
2022-09-01T08:25:44.073Z,50.68
2022-09-01T08:28:11.824Z,50.60
2022-09-01T08:30:40.992Z,50.22
2022-09-01T08:33:11.771Z,49.45
2022-09-01T08:35:40.135Z,49.14
2022-09-01T08:38:06.949Z,49.22
2022-09-01T08:40:33.799Z,49.24
2022-09-01T08:43:31.188Z,49.33
2022-09-01T08:46:02.977Z,49.01
2022-09-01T08:51:36.700Z,47.97
2022-09-01T08:54:20.202Z,48.52
2022-09-01T08:57:06.723Z,48.38
2022-09-01T08:59:33.191Z,46.74
2022-09-01T09:02:04.974Z,47.37
2022-09-01T09:04:35.931Z,46.61
2022-09-01T09:07:21.055Z,46.67
2022-09-01T09:10:04.216Z,47.16
2022-09-01T09:13:04.071Z,45.86
2022-09-01T09:15:47.414Z,45.75
2022-09-01T09:18:38.791Z,44.70
2022-09-01T09:21:17.445Z,44.89
2022-09-01T09:23:48.473Z,44.55
2022-09-01T09:26:16.757Z,44.22
2022-09-01T09:28:55.538Z,42.71
2022-09-01T09:31:43.137Z,43.14
2022-09-01T09:34:44.516Z,42.64
2022-09-01T09:37:17.642Z,42.77
2022-09-01T09:39:45.229Z,41.30
2022-09-01T09:42:16.316Z,41.18
2022-09-01T09:44:52.742Z,41.47
2022-09-01T09:47:43.953Z,41.48
2022-09-01T09:50:22.983Z,41.51
2022-09-01T09:52:52.273Z,41.01
2022-09-01T09:55:26.413Z,40.53
2022-09-01T09:57:59.994Z,39.91
2022-09-01T10:00:28.830Z,39.90
2022-09-01T10:03:01.652Z,39.16
2022-09-01T10:05:37.748Z,40.14
2022-09-01T10:08:08.797Z,38.00
2022-09-01T10:10:57.334Z,38.43
2022-09-01T10:13:29.070Z,38.00
2022-09-01T10:16:09.131Z,38.59
2022-09-01T10:18:51.329Z,37.63
2022-09-01T10:21:26.262Z,38.51
2022-09-01T10:23:53.454Z,37.65
2022-09-01T10:26:37.846Z,37.99
2022-09-01T10:29:19.576Z,36.43
2022-09-01T10:31:46.622Z,36.63
2022-09-01T10:34:19.511Z,37.00
2022-09-01T10:36:55.860Z,37.21
2022-09-01T10:39:28.491Z,37.24
2022-09-01T10:42:00.029Z,37.18
2022-09-01T10:44:35.695Z,36.07
2022-09-01T10:47:27.025Z,36.62
2022-09-01T10:49:53.471Z,36.08
2022-09-01T10:52:41.439Z,36.72
2022-09-01T10:55:24.707Z,36.39
2022-09-01T10:58:09.267Z,37.10
2022-09-01T11:03:53.492Z,36.02
2022-09-01T11:07:14.466Z,36.15
2022-09-01T11:10:11.833Z,35.94
2022-09-01T11:13:21.771Z,33.77
2022-09-01T11:15:48.921Z,32.73
2022-09-01T11:18:24.827Z,33.76
2022-09-01T11:20:51.630Z,33.17
2022-09-01T11:23:21.902Z,33.08
2022-09-01T11:26:20.898Z,33.00
2022-09-01T11:28:47.787Z,33.04
2022-09-01T11:31:30.543Z,32.40
2022-09-01T11:34:13.547Z,32.26
2022-09-01T11:36:45.918Z,31.88
2022-09-01T11:39:19.146Z,32.89
2022-09-01T11:41:57.478Z,32.25
2022-09-01T11:44:46.146Z,32.56
2022-09-01T11:47:19.311Z,31.67
2022-09-01T11:49:54.117Z,32.23
2022-09-01T11:52:23.424Z,31.50
2022-09-01T11:54:51.198Z,32.19
2022-09-01T11:57:31.713Z,32.89
2022-09-01T12:00:00.983Z,31.86
2022-09-01T12:02:29.739Z,32.01
2022-09-01T12:04:57.255Z,33.26
2022-09-01T12:07:38.742Z,33.22
2022-09-01T12:10:17.604Z,33.24
2022-09-01T12:12:44.477Z,32.88
2022-09-01T12:15:27.246Z,33.29
2022-09-01T12:18:14.502Z,32.68
2022-09-01T12:20:41.499Z,32.40
2022-09-01T12:23:24.605Z,33.03
2022-09-01T12:25:51.873Z,32.63
2022-09-01T12:28:19.375Z,32.31
2022-09-01T12:30:46.022Z,32.26
2022-09-01T12:33:29.605Z,32.77
2022-09-01T12:36:15.082Z,33.53
2022-09-01T12:38:41.617Z,32.45
2022-09-01T12:41:24.734Z,33.01
2022-09-01T12:43:54.793Z,31.84
2022-09-01T12:46:46.731Z,32.52
2022-09-01T12:49:28.480Z,32.80
2022-09-01T12:52:15.234Z,31.94
2022-09-01T12:54:43.864Z,32.33
2022-09-01T12:57:12.419Z,32.17
2022-09-01T12:59:39.037Z,31.44
2022-09-01T13:02:28.889Z,31.92
2022-09-01T13:04:57.269Z,31.21
2022-09-01T13:07:24.955Z,31.14
2022-09-01T13:09:52.813Z,30.43
2022-09-01T13:12:21.897Z,31.52
2022-09-01T13:14:50.261Z,30.60
2022-09-01T13:17:19.489Z,31.30
2022-09-01T13:19:47.077Z,30.95
2022-09-01T13:22:13.763Z,31.91
2022-09-01T13:24:40.659Z,32.21
2022-09-01T13:27:24.151Z,32.72
2022-09-01T13:29:51.311Z,31.17
2022-09-01T13:32:20.951Z,31.95
2022-09-01T13:34:50.686Z,31.37
2022-09-01T13:37:19.366Z,30.47
2022-09-01T13:39:47.124Z,30.90
2022-09-01T13:42:14.854Z,31.99
2022-09-01T13:44:42.559Z,31.29
2022-09-01T13:50:12.202Z,31.72
2022-09-01T13:52:54.967Z,31.02
2022-09-01T13:55:26.066Z,30.77
2022-09-01T13:57:55.833Z,31.17
2022-09-01T14:00:29.456Z,30.37
2022-09-01T14:03:00.293Z,29.78
2022-09-01T14:05:31.218Z,28.31
2022-09-01T14:07:58.810Z,28.00
2022-09-01T14:10:27.601Z,27.91
2022-09-01T14:12:55.161Z,25.88
2022-09-01T14:15:27.008Z,24.15
2022-09-01T14:17:56.395Z,24.20
2022-09-01T14:20:27.366Z,26.10
2022-09-01T14:22:55.504Z,24.51
2022-09-01T14:25:22.158Z,22.97
2022-09-01T14:27:49.942Z,22.36
2022-09-01T14:30:21.088Z,21.66
2022-09-01T14:32:48.743Z,21.92
2022-09-01T14:35:17.908Z,24.31
2022-09-01T14:37:46.335Z,25.85
2022-09-01T14:40:16.454Z,27.06
2022-09-01T14:42:46.988Z,26.51
2022-09-01T14:45:16.023Z,26.23
2022-09-01T14:47:44.361Z,25.85
2022-09-01T14:50:13.114Z,26.17
2022-09-01T14:52:41.486Z,25.13
2022-09-01T14:55:11.059Z,24.89
2022-09-01T14:57:38.673Z,24.66
2022-09-01T15:00:12.418Z,24.96
2022-09-01T15:02:43.155Z,24.73
2022-09-01T15:05:11.753Z,23.64
2022-09-01T15:07:40.428Z,25.55
2022-09-01T15:10:10.037Z,27.10
2022-09-01T15:12:40.380Z,27.89
2022-09-01T15:15:09.028Z,28.39
2022-09-01T15:17:36.036Z,28.20
2022-09-01T15:20:22.922Z,29.12
2022-09-01T15:22:50.553Z,29.07
2022-09-01T15:25:20.815Z,29.17
2022-09-01T15:27:48.345Z,29.91
2022-09-01T15:30:17.360Z,30.29
2022-09-01T15:32:46.724Z,30.25
2022-09-01T15:35:14.443Z,29.81
2022-09-01T15:37:41.185Z,29.63
2022-09-01T15:40:09.491Z,30.35
2022-09-01T15:42:38.001Z,31.05
2022-09-01T15:45:12.013Z,30.25
2022-09-01T15:47:44.944Z,30.39
2022-09-01T15:50:20.966Z,30.62
2022-09-01T15:52:52.249Z,30.89
2022-09-01T15:55:45.549Z,31.08
2022-09-01T15:58:15.375Z,31.72
2022-09-01T16:00:46.060Z,31.59
2022-09-01T16:03:12.822Z,31.35
2022-09-01T16:05:40.984Z,30.86
2022-09-01T16:08:09.528Z,31.35
2022-09-01T16:10:39.905Z,32.06
2022-09-01T16:13:07.223Z,32.90
2022-09-01T16:15:35.283Z,32.49
2022-09-01T16:18:11.055Z,31.30
2022-09-01T16:20:41.127Z,30.93
2022-09-01T16:23:14.750Z,31.42
2022-09-01T16:25:44.585Z,31.46
2022-09-01T16:28:37.027Z,31.81
2022-09-01T16:31:16.474Z,31.18
2022-09-01T16:33:48.111Z,31.58
2022-09-01T16:36:39.317Z,31.30
2022-09-01T16:39:21.492Z,32.32
2022-09-01T16:41:53.573Z,32.75
2022-09-01T16:44:46.654Z,32.29
2022-09-01T16:47:38.917Z,32.32
2022-09-01T16:50:40.868Z,32.72
2022-09-01T16:53:20.588Z,31.92
2022-09-01T16:56:25.990Z,32.95
2022-09-01T16:59:03.728Z,32.59
2022-09-01T17:02:01.819Z,32.20
2022-09-01T17:04:42.828Z,32.53
2022-09-01T17:07:29.989Z,32.77
2022-09-01T17:10:19.125Z,33.25
2022-09-01T17:12:50.952Z,33.49
2022-09-01T17:15:39.568Z,33.17
2022-09-01T17:18:22.418Z,32.58
2022-09-01T17:20:58.221Z,33.09
2022-09-01T17:23:29.094Z,32.59
2022-09-01T17:26:01.564Z,32.97
2022-09-01T17:28:38.643Z,33.37
2022-09-01T17:31:31.758Z,33.49
2022-09-01T17:34:16.195Z,33.78
2022-09-01T17:37:12.882Z,33.50
2022-09-01T17:39:45.230Z,34.39
2022-09-01T17:42:30.619Z,34.18
2022-09-01T17:45:07.114Z,33.71
2022-09-01T17:47:41.838Z,34.51
2022-09-01T17:50:25.546Z,34.65
2022-09-01T17:53:09.985Z,34.29
2022-09-01T17:55:43.578Z,34.06
2022-09-01T17:58:55.511Z,34.67
2022-09-01T18:01:34.148Z,35.08
2022-09-01T18:04:11.946Z,34.80
2022-09-01T18:06:39.012Z,35.80
2022-09-01T18:09:07.362Z,35.42
2022-09-01T18:12:01.583Z,35.74
2022-09-01T18:14:34.771Z,35.38
2022-09-01T18:17:08.930Z,35.29
2022-09-01T18:19:42.913Z,36.43
2022-09-01T18:22:16.719Z,35.94
2022-09-01T18:25:07.749Z,36.36
2022-09-01T18:27:36.009Z,36.07
2022-09-01T18:30:02.816Z,35.98
2022-09-01T18:33:08.457Z,36.61
2022-09-01T18:35:41.056Z,36.83
2022-09-01T18:38:26.897Z,36.38
2022-09-01T18:41:03.222Z,36.90
2022-09-01T18:43:42.020Z,37.29
2022-09-01T18:46:22.869Z,37.39
2022-09-01T18:49:24.094Z,37.55
2022-09-01T18:52:15.656Z,36.96
2022-09-01T18:54:55.216Z,36.94
2022-09-01T18:57:29.019Z,38.04
2022-09-01T19:00:17.954Z,37.63
2022-09-01T19:03:15.797Z,37.89
2022-09-01T19:06:00.931Z,37.61
2022-09-01T19:08:56.615Z,37.66
2022-09-01T19:11:31.748Z,37.86
2022-09-01T19:14:42.962Z,37.74
2022-09-01T19:17:14.171Z,37.92
2022-09-01T19:19:43.771Z,38.01
2022-09-01T19:22:17.330Z,38.08
2022-09-01T19:24:48.667Z,38.43
2022-09-01T19:27:21.662Z,38.13
2022-09-01T19:29:56.162Z,38.29
2022-09-01T19:32:27.157Z,38.63
2022-09-01T19:34:57.830Z,38.62
2022-09-01T19:37:25.364Z,38.99
2022-09-01T19:39:54.441Z,38.94
2022-09-01T19:42:29.206Z,38.75
2022-09-01T19:45:06.861Z,38.78
2022-09-01T19:47:47.571Z,39.38
2022-09-01T19:50:24.920Z,39.35
2022-09-01T19:53:00.723Z,39.53
2022-09-01T19:55:38.609Z,39.28
2022-09-01T19:58:10.525Z,39.75
2022-09-01T20:00:51.036Z,39.49
2022-09-01T20:03:35.203Z,39.87
2022-09-01T20:06:05.631Z,39.87
2022-09-01T20:08:39.659Z,39.89
2022-09-01T20:11:18.804Z,39.69
2022-09-01T20:14:17.511Z,39.86
2022-09-01T20:16:49.076Z,39.98
2022-09-01T20:19:40.894Z,40.35
2022-09-01T20:22:13.469Z,40.61
2022-09-01T20:24:40.058Z,39.98
2022-09-01T20:27:32.238Z,40.30
2022-09-01T20:30:09.675Z,40.43
2022-09-01T20:33:15.180Z,40.29
2022-09-01T20:35:51.282Z,40.62
2022-09-01T20:38:54.617Z,40.76
2022-09-01T20:42:05.308Z,40.47
2022-09-01T20:44:41.863Z,40.92
2022-09-01T20:47:08.784Z,40.50
2022-09-01T20:49:38.904Z,41.00
2022-09-01T20:52:28.140Z,40.61
2022-09-01T20:55:08.968Z,41.06
2022-09-01T20:58:20.580Z,40.77
2022-09-01T21:01:13.157Z,40.72
2022-09-01T21:04:08.283Z,41.15
2022-09-01T21:06:56.692Z,41.03
2022-09-01T21:09:36.944Z,40.95
2022-09-01T21:12:22.962Z,40.94
2022-09-01T21:15:03.550Z,41.60
2022-09-01T21:17:58.143Z,41.30
2022-09-01T21:20:30.803Z,40.98
2022-09-01T21:22:57.294Z,40.73
2022-09-01T21:25:23.865Z,41.04
2022-09-01T21:27:57.599Z,41.15
2022-09-01T21:30:26.305Z,41.38
2022-09-01T21:32:53.860Z,41.45
2022-09-01T21:35:22.118Z,41.24
2022-09-01T21:37:49.450Z,41.52
2022-09-01T21:40:18.040Z,41.30
2022-09-01T21:42:49.154Z,41.10
2022-09-01T21:45:18.778Z,41.30
2022-09-01T21:47:46.983Z,41.05
2022-09-01T21:50:16.286Z,41.29
2022-09-01T21:52:42.985Z,41.20
2022-09-01T21:55:09.975Z,41.54
2022-09-01T21:57:36.886Z,41.29
2022-09-01T22:00:10.388Z,41.58
2022-09-01T22:02:37.321Z,41.82
2022-09-01T22:05:05.913Z,41.82
2022-09-01T22:07:40.238Z,41.85
2022-09-01T22:10:10.284Z,41.65
2022-09-01T22:12:39.183Z,41.50
2022-09-01T22:15:08.069Z,41.76
2022-09-01T22:17:34.588Z,41.86
2022-09-01T22:20:02.814Z,41.99
2022-09-01T22:22:29.471Z,41.80
2022-09-01T22:24:55.907Z,41.72
2022-09-01T22:27:22.381Z,41.81
2022-09-01T22:29:49.704Z,42.13
2022-09-01T22:32:16.213Z,42.19
2022-09-01T22:34:43.570Z,42.17
2022-09-01T22:37:10.535Z,42.28
2022-09-01T22:39:37.312Z,42.28
2022-09-01T22:42:06.981Z,42.56
2022-09-01T22:44:33.692Z,42.55
2022-09-01T22:47:00.281Z,42.22
2022-09-01T22:49:26.917Z,42.33
2022-09-01T22:51:53.643Z,42.43
2022-09-01T22:54:20.334Z,42.67
2022-09-01T22:56:46.904Z,43.05
2022-09-01T22:59:15.316Z,42.85
2022-09-01T23:01:45.819Z,42.99
2022-09-01T23:04:14.621Z,43.42
2022-09-01T23:06:44.908Z,43.32
2022-09-01T23:09:12.261Z,43.04
2022-09-01T23:11:38.836Z,43.10
2022-09-01T23:14:05.692Z,42.86
2022-09-01T23:16:33.594Z,43.00
2022-09-01T23:19:01.479Z,43.16
2022-09-01T23:21:31.865Z,43.27
2022-09-01T23:23:59.093Z,43.16
2022-09-01T23:26:26.912Z,43.15
2022-09-01T23:28:53.592Z,43.30
2022-09-01T23:31:24.669Z,43.65
2022-09-01T23:33:51.707Z,43.47
2022-09-01T23:36:20.735Z,43.43
2022-09-01T23:38:47.945Z,43.75
2022-09-01T23:41:19.032Z,43.51
2022-09-01T23:43:45.640Z,43.93
2022-09-01T23:46:21.084Z,43.84
2022-09-01T23:48:47.873Z,44.12
2022-09-01T23:51:14.445Z,44.25
2022-09-01T23:53:41.340Z,44.43
2022-09-01T23:56:16.835Z,44.57
2022-09-01T23:58:43.743Z,44.77
